Time;durP1;ratioP1;P1;durP2;ratioP2;P2;SDS_P1;SDS_P2;PMS_P1;PMS_P2;Temp;Humidity;BMP_temperature;BMP_pressure;BME280_temperature;BME280_humidity;BME280_pressure;Samples;Min_cycle;Max_cycle;Signal;HPM_P1;HPM_P2
2022/11/28 00:02:10;;;;;;;16.88;11.65;;;7.10;99.90;;;;;;5026362;28;20030;-77
2022/11/28 00:04:36;;;;;;;14.52;9.80;;;7.10;99.90;;;;;;5026863;28;20045;-77
2022/11/28 00:07:03;;;;;;;13.65;10.43;;;7.10;99.90;;;;;;5023773;28;20037;-77
2022/11/28 00:09:29;;;;;;;15.10;11.27;;;7.10;99.90;;;;;;5021202;28;20038;-77
2022/11/28 00:11:55;;;;;;;16.17;9.80;;;7.20;99.90;;;;;;5026114;28;20025;-77
2022/11/28 00:14:22;;;;;;;12.55;9.98;;;7.20;99.90;;;;;;5010181;28;20041;-77
2022/11/28 00:16:48;;;;;;;12.90;8.93;;;7.20;99.90;;;;;;5010162;28;20519;-77
2022/11/28 00:19:15;;;;;;;12.45;8.77;;;7.20;99.90;;;;;;5035424;28;20046;-77
2022/11/28 00:21:41;;;;;;;15.68;9.75;;;7.20;99.90;;;;;;5025617;28;20032;-77
2022/11/28 00:24:08;;;;;;;12.77;8.18;;;7.20;99.90;;;;;;5026261;28;20037;-77
2022/11/28 00:26:38;;;;;;;10.55;8.18;;;7.20;99.90;;;;;;4993604;28;20037;-77
2022/11/28 00:29:06;;;;;;;16.60;11.15;;;7.20;99.90;;;;;;4985907;28;20034;-77
2022/11/28 00:31:40;;;;;;;14.88;11.23;;;7.20;99.90;;;;;;5009920;28;20457;-76
2022/11/28 00:34:14;;;;;;;14.23;11.25;;;7.20;99.90;;;;;;5026384;28;20040;-77
2022/11/28 00:36:43;;;;;;;15.18;9.88;;;7.30;99.90;;;;;;5026253;28;20033;-77
2022/11/28 00:39:09;;;;;;;13.18;10.15;;;7.20;99.90;;;;;;5018621;28;20040;-76
2022/11/28 00:41:35;;;;;;;14.65;9.18;;;7.30;99.90;;;;;;5026155;28;20029;-77
2022/11/28 00:44:02;;;;;;;10.77;8.48;;;7.30;99.90;;;;;;5025593;28;20025;-77
2022/11/28 00:46:28;;;;;;;10.77;8.57;;;7.30;99.90;;;;;;5009600;28;20391;-76
2022/11/28 00:48:57;;;;;;;10.60;8.40;;;7.30;99.90;;;;;;5018355;28;20045;-77
2022/11/28 00:51:26;;;;;;;11.23;7.45;;;7.30;99.90;;;;;;5009253;28;20377;-77
2022/11/28 00:53:55;;;;;;;9.02;6.55;;;7.30;99.90;;;;;;5025522;28;20388;-77
2022/11/28 00:56:23;;;;;;;11.65;8.35;;;7.40;99.90;;;;;;4992968;28;20029;-77
2022/11/28 00:58:50;;;;;;;13.20;9.60;;;7.40;99.90;;;;;;5019973;28;20056;-77
2022/11/28 01:01:27;;;;;;;11.23;9.10;;;7.40;99.90;;;;;;5006586;28;20040;-77
2022/11/28 01:03:55;;;;;;;13.85;9.20;;;7.40;99.90;;;;;;5009673;28;20034;-77
2022/11/28 01:06:26;;;;;;;11.43;7.68;;;7.40;99.90;;;;;;5009525;28;20025;-77
2022/11/28 01:08:54;;;;;;;11.55;7.90;;;7.40;99.90;;;;;;5002244;28;20025;-77
2022/11/28 01:11:20;;;;;;;9.80;7.57;;;7.40;99.90;;;;;;5008651;28;20030;-77
2022/11/28 01:13:48;;;;;;;15.82;10.32;;;7.40;99.90;;;;;;5026024;28;20033;-77
2022/11/28 01:16:14;;;;;;;12.27;9.15;;;7.40;99.90;;;;;;5009449;28;20053;-76
2022/11/28 01:18:41;;;;;;;10.88;8.15;;;7.40;99.90;;;;;;5020143;28;20026;-77
2022/11/28 01:21:08;;;;;;;10.55;8.13;;;7.50;99.90;;;;;;5025216;28;20040;-77
2022/11/28 01:23:34;;;;;;;11.65;9.05;;;7.50;99.90;;;;;;5009599;28;20034;-77
2022/11/28 01:26:02;;;;;;;13.35;8.63;;;7.50;99.90;;;;;;5025795;28;20045;-77
2022/11/28 01:28:29;;;;;;;11.45;7.97;;;7.50;99.90;;;;;;5001103;28;20495;-77
2022/11/28 01:30:55;;;;;;;12.80;8.30;;;7.50;99.90;;;;;;4992217;28;20057;-77
2022/11/28 01:33:22;;;;;;;10.27;7.32;;;7.60;99.90;;;;;;5012955;28;20044;-77
2022/11/28 01:35:56;;;;;;;13.10;8.73;;;7.60;99.90;;;;;;5029350;28;20045;-77
2022/11/28 01:38:23;;;;;;;11.07;7.75;;;7.60;99.90;;;;;;5023840;28;20029;-77
2022/11/28 01:40:50;;;;;;;11.32;7.20;;;7.60;99.90;;;;;;5029656;28;20468;-77
2022/11/28 01:43:17;;;;;;;9.70;7.18;;;7.60;99.90;;;;;;5029236;28;20046;-77
2022/11/28 01:45:44;;;;;;;10.73;6.20;;;7.70;99.90;;;;;;5029360;28;20089;-77
2022/11/28 01:48:14;;;;;;;9.48;6.30;;;7.60;99.90;;;;;;5023203;28;20040;-77
2022/11/28 01:50:42;;;;;;;9.93;5.97;;;7.70;99.90;;;;;;5029649;28;20032;-77
2022/11/28 01:53:10;;;;;;;7.43;5.47;;;7.70;99.90;;;;;;5028803;28;20369;-77
2022/11/28 01:55:42;;;;;;;13.55;7.38;;;7.70;99.90;;;;;;5011262;28;20026;-77
2022/11/28 01:58:10;;;;;;;11.57;7.07;;;7.80;99.90;;;;;;5038197;28;20058;-77
2022/11/28 02:00:36;;;;;;;11.27;7.60;;;7.80;99.90;;;;;;5012119;28;20436;-76
2022/11/28 02:03:09;;;;;;;13.63;7.32;;;7.80;99.90;;;;;;5030299;28;20034;-77
2022/11/28 02:05:36;;;;;;;10.93;7.32;;;7.80;99.90;;;;;;5028676;28;20349;-77
2022/11/28 02:08:03;;;;;;;11.38;7.07;;;7.80;99.90;;;;;;5036641;28;20527;-77
2022/11/28 02:10:52;;;;;;;14.07;7.00;;;7.80;99.90;;;;;;5030479;28;20032;-77
2022/11/28 02:13:25;;;;;;;9.05;6.60;;;7.80;99.90;;;;;;5029924;28;20025;-77
2022/11/28 02:15:58;;;;;;;13.25;8.48;;;7.80;99.90;;;;;;5029021;28;20049;-77
2022/11/28 02:18:30;;;;;;;10.50;7.10;;;7.80;99.90;;;;;;5003805;28;20068;-77
2022/11/28 02:21:17;;;;;;;13.25;7.60;;;7.80;99.90;;;;;;5011940;28;20465;-76
2022/11/28 02:24:02;;;;;;;13.82;8.63;;;7.80;99.90;;;;;;5011963;28;20034;-76
2022/11/28 02:27:03;;;;;;;10.18;7.03;;;7.90;99.90;;;;;;5028444;28;20507;-77
2022/11/28 02:30:04;;;;;;;10.13;7.28;;;7.80;99.90;;;;;;5023162;28;20033;-77
2022/11/28 02:32:33;;;;;;;8.65;6.10;;;7.80;99.90;;;;;;5044277;28;20040;-77
2022/11/28 02:35:34;;;;;;;9.80;6.65;;;7.80;99.90;;;;;;5028812;28;20037;-77
2022/11/28 02:38:13;;;;;;;8.23;6.03;;;7.90;99.90;;;;;;5002355;28;20060;-76
2022/11/28 02:40:59;;;;;;;7.40;5.47;;;7.90;99.90;;;;;;5029887;28;20037;-76
2022/11/28 02:43:39;;;;;;;9.95;6.75;;;7.90;99.90;;;;;;5010792;28;20036;-76
2022/11/28 02:46:10;;;;;;;12.82;7.38;;;7.90;99.90;;;;;;5027960;28;20034;-76
2022/11/28 02:48:42;;;;;;;8.90;6.63;;;7.80;99.90;;;;;;5020605;28;20096;-77
2022/11/28 02:51:36;;;;;;;11.85;7.88;;;7.90;99.90;;;;;;5029824;28;20026;-76
2022/11/28 02:54:06;;;;;;;11.77;7.53;;;7.90;99.90;;;;;;5011836;28;20073;-77
2022/11/28 02:56:33;;;;;;;10.50;7.70;;;7.90;99.90;;;;;;5029755;28;20457;-76
2022/11/28 02:58:59;;;;;;;7.43;5.85;;;7.80;99.90;;;;;;5020718;28;20489;-76
2022/11/28 03:01:33;;;;;;;11.02;6.95;;;7.80;99.90;;;;;;5044745;28;20499;-76
2022/11/28 03:04:17;;;;;;;10.80;7.03;;;7.80;99.90;;;;;;5010881;28;20033;-76
2022/11/28 03:07:12;;;;;;;9.90;6.63;;;7.80;99.90;;;;;;5011226;28;20038;-76
2022/11/28 03:10:00;;;;;;;16.08;10.00;;;7.80;99.90;;;;;;5011356;28;20049;-76
2022/11/28 03:13:03;;;;;;;12.57;8.82;;;7.80;99.90;;;;;;4994982;28;20053;-76
2022/11/28 03:15:54;;;;;;;14.35;9.90;;;7.90;99.90;;;;;;5027651;28;20029;-76
2022/11/28 03:18:29;;;;;;;10.10;8.27;;;7.80;99.90;;;;;;5018642;28;20029;-76
2022/11/28 03:21:02;;;;;;;22.20;9.75;;;7.80;99.90;;;;;;5027969;28;20037;-76
2022/11/28 03:23:45;;;;;;;10.60;7.38;;;7.80;99.90;;;;;;5043137;28;20388;-76
2022/11/28 03:26:48;;;;;;;8.50;6.60;;;7.80;99.90;;;;;;5011156;28;20388;-76
2022/11/28 03:29:29;;;;;;;12.38;8.60;;;7.90;99.90;;;;;;4993168;28;20480;-76
2022/11/28 03:32:04;;;;;;;9.27;6.88;;;7.90;99.90;;;;;;5025146;28;20032;-76
2022/11/28 03:34:34;;;;;;;9.95;6.38;;;7.90;99.90;;;;;;5011751;28;20040;-76
2022/11/28 03:37:12;;;;;;;12.00;6.57;;;7.90;99.90;;;;;;4992912;28;20042;-77
2022/11/28 03:39:42;;;;;;;8.68;4.90;;;7.90;99.90;;;;;;5037647;28;20464;-75
2022/11/28 03:42:13;;;;;;;9.45;5.65;;;7.90;99.90;;;;;;4993977;28;21091;-75
2022/11/28 03:44:48;;;;;;;5.55;4.28;;;7.90;99.90;;;;;;5044153;28;20018;-77
2022/11/28 03:47:15;;;;;;;8.25;5.80;;;8.00;99.90;;;;;;5007092;28;20053;-76
2022/11/28 03:49:50;;;;;;;7.22;5.50;;;8.00;99.90;;;;;;5005004;28;20048;-76
2022/11/28 03:52:40;;;;;;;8.80;6.35;;;8.00;99.90;;;;;;5026397;28;20029;-76
2022/11/28 03:55:34;;;;;;;8.88;7.28;;;8.00;99.90;;;;;;5026973;28;20029;-77
2022/11/28 03:58:21;;;;;;;12.68;9.10;;;8.00;99.90;;;;;;5032741;28;20061;-76
2022/11/28 04:01:07;;;;;;;11.95;7.78;;;8.00;99.90;;;;;;5027047;28;20037;-76
2022/11/28 04:04:18;;;;;;;11.90;9.07;;;8.00;99.90;;;;;;5009908;28;20071;-77
2022/11/28 04:06:51;;;;;;;11.98;8.77;;;8.00;99.90;;;;;;5040979;28;20026;-77
2022/11/28 04:09:23;;;;;;;17.35;10.48;;;8.00;99.90;;;;;;5017540;28;20408;-77
2022/11/28 04:12:05;;;;;;;10.57;7.97;;;8.00;99.90;;;;;;5026408;28;20048;-76
2022/11/28 04:14:40;;;;;;;12.00;8.68;;;8.00;99.90;;;;;;5010408;28;20040;-77
2022/11/28 04:17:22;;;;;;;17.95;11.77;;;8.00;99.90;;;;;;5041199;28;20037;-77
2022/11/28 04:19:52;;;;;;;15.13;10.20;;;8.00;99.90;;;;;;5024404;28;20704;-77
2022/11/28 04:22:27;;;;;;;16.45;11.05;;;8.00;99.90;;;;;;5010138;28;20052;-76
2022/11/28 04:24:57;;;;;;;16.55;11.70;;;8.00;99.90;;;;;;5025827;28;20025;-76
2022/11/28 04:27:30;;;;;;;14.55;10.20;;;8.00;99.90;;;;;;5004589;28;20052;-76
2022/11/28 04:29:59;;;;;;;16.95;11.00;;;8.00;99.90;;;;;;5023762;28;20030;-77
2022/11/28 04:32:29;;;;;;;13.82;11.18;;;8.00;99.90;;;;;;5026224;28;20052;-76
2022/11/28 04:35:10;;;;;;;17.60;10.32;;;8.00;99.90;;;;;;5009852;28;20029;-76
2022/11/28 04:37:39;;;;;;;11.27;8.07;;;8.00;99.90;;;;;;5002808;28;20538;-76
2022/11/28 04:40:10;;;;;;;13.68;9.93;;;8.00;99.90;;;;;;4991856;28;20400;-76
2022/11/28 04:42:42;;;;;;;15.27;9.85;;;8.00;99.90;;;;;;5042709;28;20025;-77
2022/11/28 04:45:20;;;;;;;18.98;10.30;;;8.00;99.90;;;;;;4993652;28;20033;-77
2022/11/28 04:47:47;;;;;;;18.10;9.90;;;8.00;99.90;;;;;;5017401;28;20060;-76
2022/11/28 04:50:13;;;;;;;12.75;8.80;;;8.00;99.90;;;;;;4993487;28;20037;-77
2022/11/28 04:52:59;;;;;;;18.92;9.52;;;8.00;99.90;;;;;;5025826;28;20026;-77
2022/11/28 04:55:38;;;;;;;11.50;8.50;;;8.00;99.90;;;;;;5026134;28;20128;-77
2022/11/28 04:58:34;;;;;;;17.70;10.77;;;8.00;99.90;;;;;;5000080;28;20057;-78
2022/11/28 05:01:06;;;;;;;21.45;11.65;;;8.00;99.90;;;;;;5009337;28;20030;-78
2022/11/28 05:03:33;;;;;;;17.23;10.73;;;8.00;99.90;;;;;;5025875;28;20410;-77
2022/11/28 05:06:00;;;;;;;17.27;11.07;;;8.00;99.90;;;;;;5025701;28;20038;-78
2022/11/28 05:08:27;;;;;;;14.52;9.25;;;8.00;99.90;;;;;;5015589;28;20056;-77
2022/11/28 05:10:53;;;;;;;13.82;9.18;;;8.00;99.90;;;;;;5025989;28;20041;-77
2022/11/28 05:13:20;;;;;;;11.98;9.15;;;8.00;99.90;;;;;;5009265;28;20025;-78
2022/11/28 05:15:46;;;;;;;14.98;10.80;;;8.00;99.90;;;;;;5009446;28;20393;-77
2022/11/28 05:18:12;;;;;;;14.95;9.82;;;8.00;99.90;;;;;;5001517;28;20025;-77
2022/11/28 05:20:39;;;;;;;11.27;8.20;;;8.00;99.90;;;;;;5009660;28;20045;-78
2022/11/28 05:23:05;;;;;;;10.40;7.30;;;8.00;99.90;;;;;;5042192;28;20045;-78
2022/11/28 05:25:31;;;;;;;9.95;7.47;;;8.00;99.90;;;;;;5009224;28;20392;-77
2022/11/28 05:27:58;;;;;;;10.20;8.70;;;8.00;99.90;;;;;;4999812;28;20041;-77
2022/11/28 05:30:24;;;;;;;12.40;10.35;;;8.00;99.90;;;;;;5026234;28;20037;-77
2022/11/28 05:32:50;;;;;;;9.73;7.68;;;8.00;99.90;;;;;;5025509;28;20029;-78
2022/11/28 05:35:17;;;;;;;7.97;7.05;;;8.00;99.90;;;;;;5009302;28;20040;-77
2022/11/28 05:37:43;;;;;;;10.63;8.93;;;8.10;99.90;;;;;;5000733;28;20037;-77
2022/11/28 05:40:10;;;;;;;8.20;7.38;;;8.00;99.90;;;;;;5024730;28;20030;-77
2022/11/28 05:42:36;;;;;;;10.55;6.63;;;8.10;99.90;;;;;;5008792;28;20481;-77
2022/11/28 05:45:03;;;;;;;9.90;7.50;;;8.10;99.90;;;;;;5042701;28;20029;-77
2022/11/28 05:47:31;;;;;;;7.22;6.50;;;8.10;99.90;;;;;;5001918;28;20046;-77
2022/11/28 05:49:57;;;;;;;9.32;6.80;;;8.10;99.90;;;;;;5006357;28;20029;-77
2022/11/28 05:52:24;;;;;;;7.93;7.07;;;8.10;99.90;;;;;;5025259;28;20384;-77
2022/11/28 05:54:50;;;;;;;5.90;5.13;;;8.10;99.90;;;;;;5042296;28;20037;-77
2022/11/28 05:57:17;;;;;;;7.00;5.68;;;8.10;99.90;;;;;;5021494;28;20666;-77
2022/11/28 05:59:43;;;;;;;7.60;6.55;;;8.10;99.90;;;;;;5036185;28;20377;-77
2022/11/28 06:02:09;;;;;;;7.30;6.53;;;8.10;99.90;;;;;;5027246;28;20029;-77
2022/11/28 06:04:35;;;;;;;6.18;5.47;;;8.10;99.90;;;;;;5008934;28;20429;-78
2022/11/28 06:07:02;;;;;;;6.22;5.05;;;8.10;99.90;;;;;;5023367;28;20052;-77
2022/11/28 06:09:28;;;;;;;8.10;5.25;;;8.10;99.90;;;;;;5034281;28;20037;-77
2022/11/28 06:11:54;;;;;;;6.55;5.85;;;8.10;99.90;;;;;;5025377;28;20044;-78
2022/11/28 06:14:21;;;;;;;6.28;5.68;;;8.10;99.90;;;;;;5025245;28;20366;-78
2022/11/28 06:16:47;;;;;;;7.43;6.70;;;8.10;99.90;;;;;;4992398;28;20030;-77
2022/11/28 06:19:13;;;;;;;5.63;5.05;;;8.10;99.90;;;;;;5034361;28;20040;-77
2022/11/28 06:21:39;;;;;;;5.47;4.65;;;8.10;99.90;;;;;;5029090;28;20503;-77
2022/11/28 06:24:06;;;;;;;5.38;4.88;;;8.10;99.90;;;;;;5028286;28;20038;-77
2022/11/28 06:26:32;;;;;;;6.20;5.60;;;8.10;99.90;;;;;;5012349;28;20025;-77
2022/11/28 06:28:59;;;;;;;6.28;5.63;;;8.10;99.90;;;;;;5002799;28;20045;-77
2022/11/28 06:31:27;;;;;;;4.97;4.47;;;8.10;99.90;;;;;;5028699;28;20030;-78
2022/11/28 06:33:53;;;;;;;4.97;4.40;;;8.10;99.90;;;;;;5045197;28;20040;-78
2022/11/28 06:36:20;;;;;;;5.03;4.53;;;8.20;99.90;;;;;;5028881;28;20036;-78
2022/11/28 06:38:46;;;;;;;6.40;5.38;;;8.20;99.90;;;;;;5019198;28;20030;-78
2022/11/28 06:41:16;;;;;;;6.50;5.90;;;8.20;99.90;;;;;;5028269;28;20025;-77
2022/11/28 06:43:45;;;;;;;4.60;4.13;;;8.20;99.90;;;;;;5042456;28;20036;-78
2022/11/28 06:46:14;;;;;;;4.75;3.85;;;8.20;99.90;;;;;;5011533;28;20033;-78
2022/11/28 06:48:40;;;;;;;4.13;3.72;;;8.20;99.90;;;;;;5002696;28;20037;-78
2022/11/28 06:51:06;;;;;;;5.88;4.78;;;8.20;99.90;;;;;;5011011;28;20037;-78
2022/11/28 06:53:34;;;;;;;7.75;6.95;;;8.20;99.90;;;;;;5019074;28;20026;-77
2022/11/28 06:56:09;;;;;;;6.50;5.50;;;8.20;99.90;;;;;;5020346;28;20033;-76
2022/11/28 06:58:36;;;;;;;8.40;6.88;;;8.20;99.90;;;;;;5012109;28;20388;-77
2022/11/28 07:01:07;;;;;;;7.97;7.15;;;8.20;99.90;;;;;;5010258;28;20033;-77
2022/11/28 07:03:34;;;;;;;6.90;6.20;;;8.20;99.90;;;;;;5008900;28;20045;-77
2022/11/28 07:06:02;;;;;;;7.97;7.18;;;8.20;99.90;;;;;;5026503;28;20044;-77
2022/11/28 07:08:30;;;;;;;7.40;5.80;;;8.20;99.90;;;;;;5015459;28;20560;-77
2022/11/28 07:10:56;;;;;;;7.22;6.53;;;8.20;99.90;;;;;;5026612;28;20467;-77
2022/11/28 07:13:23;;;;;;;8.90;7.60;;;8.20;99.90;;;;;;5027091;28;20026;-78
2022/11/28 07:15:50;;;;;;;6.38;5.75;;;8.20;99.90;;;;;;5026398;28;20384;-77
2022/11/28 07:18:17;;;;;;;8.45;6.88;;;8.20;99.90;;;;;;5001010;28;20037;-77
2022/11/28 07:20:43;;;;;;;8.50;7.10;;;8.20;99.90;;;;;;5026347;28;20028;-77
2022/11/28 07:23:09;;;;;;;7.43;6.57;;;8.20;99.90;;;;;;5024692;28;20037;-76
2022/11/28 07:25:35;;;;;;;6.90;6.07;;;8.20;99.90;;;;;;5010781;28;20044;-76
2022/11/28 07:28:02;;;;;;;9.65;7.53;;;8.20;99.90;;;;;;5001906;28;20050;-76
2022/11/28 07:30:28;;;;;;;7.70;6.90;;;8.20;99.90;;;;;;5026463;28;20033;-76
2022/11/28 07:32:54;;;;;;;8.60;7.80;;;8.20;99.90;;;;;;5010102;28;20029;-76
2022/11/28 07:35:20;;;;;;;7.90;6.45;;;8.20;99.90;;;;;;5010153;28;20048;-77
2022/11/28 07:37:47;;;;;;;8.55;7.47;;;8.20;99.90;;;;;;5002403;28;20041;-76
2022/11/28 07:40:13;;;;;;;7.40;6.15;;;8.30;99.90;;;;;;5010289;28;20033;-76
2022/11/28 07:42:39;;;;;;;7.13;6.22;;;8.20;99.90;;;;;;5026965;28;20032;-76
2022/11/28 07:45:09;;;;;;;11.70;9.95;;;8.30;99.90;;;;;;5026956;28;20037;-76
2022/11/28 07:47:35;;;;;;;9.35;7.35;;;8.30;99.90;;;;;;5020615;28;20037;-76
2022/11/28 07:50:01;;;;;;;12.65;8.75;;;8.20;99.90;;;;;;5023875;28;20068;-76
2022/11/28 07:52:28;;;;;;;10.63;8.85;;;8.30;99.90;;;;;;5027358;28;20029;-76
2022/11/28 07:54:54;;;;;;;12.95;9.00;;;8.30;99.90;;;;;;4993941;28;20056;-78
2022/11/28 07:57:21;;;;;;;12.75;10.13;;;8.20;99.90;;;;;;5022669;28;20042;-77
2022/11/28 07:59:47;;;;;;;9.55;7.57;;;8.30;99.90;;;;;;5019054;28;20026;-77
2022/11/28 08:02:13;;;;;;;12.40;10.65;;;8.30;99.90;;;;;;4992142;28;20037;-77
2022/11/28 08:04:40;;;;;;;11.05;9.45;;;8.20;99.90;;;;;;5026021;28;20036;-78
2022/11/28 08:07:06;;;;;;;12.48;11.10;;;8.30;99.90;;;;;;5008114;28;20037;-77
2022/11/28 08:09:33;;;;;;;10.45;9.20;;;8.30;99.90;;;;;;5021403;28;20388;-77
2022/11/28 08:11:59;;;;;;;11.10;9.15;;;8.30;99.90;;;;;;5027921;28;20029;-77
2022/11/28 08:14:25;;;;;;;11.75;9.98;;;8.30;99.90;;;;;;5025177;28;20033;-77
2022/11/28 08:16:51;;;;;;;12.07;10.73;;;8.30;99.90;;;;;;5019776;28;20052;-77
2022/11/28 08:19:18;;;;;;;10.20;9.20;;;8.30;99.90;;;;;;4998645;28;20052;-76
2022/11/28 08:21:44;;;;;;;10.82;8.77;;;8.30;99.90;;;;;;5018666;28;20385;-77
2022/11/28 08:24:10;;;;;;;16.92;13.75;;;8.30;99.90;;;;;;5018026;28;20465;-77
2022/11/28 08:26:37;;;;;;;13.02;11.32;;;8.30;99.90;;;;;;5036066;28;20034;-78
2022/11/28 08:29:03;;;;;;;11.43;9.75;;;8.40;99.90;;;;;;4994278;28;20045;-76
2022/11/28 08:31:33;;;;;;;10.30;8.88;;;8.40;99.90;;;;;;5039644;28;20030;-76
2022/11/28 08:34:03;;;;;;;9.32;8.35;;;8.40;99.90;;;;;;5024479;28;20040;-77
2022/11/28 08:36:29;;;;;;;10.82;8.70;;;8.40;99.90;;;;;;5041961;28;20029;-77
2022/11/28 08:38:58;;;;;;;10.48;9.05;;;8.40;99.90;;;;;;5017739;28;20026;-76
2022/11/28 08:41:24;;;;;;;15.18;11.32;;;8.40;99.90;;;;;;5024221;28;20399;-76
2022/11/28 08:43:50;;;;;;;10.00;8.98;;;8.40;99.90;;;;;;5021951;28;20136;-77
2022/11/28 08:46:20;;;;;;;12.00;9.57;;;8.50;99.90;;;;;;5008585;28;20044;-77
2022/11/28 08:48:48;;;;;;;11.35;10.15;;;8.50;99.90;;;;;;4999094;28;20052;-77
2022/11/28 08:51:16;;;;;;;10.45;9.35;;;8.50;99.90;;;;;;5025183;28;20034;-77
2022/11/28 08:53:43;;;;;;;10.35;9.32;;;8.50;99.90;;;;;;5008343;28;20044;-77
2022/11/28 08:56:10;;;;;;;12.90;11.57;;;8.50;99.90;;;;;;5024919;28;20037;-77
2022/11/28 08:58:37;;;;;;;10.30;8.90;;;8.50;99.90;;;;;;5013914;28;20045;-77
2022/11/28 09:01:18;;;;;;;10.40;7.75;;;8.50;99.90;;;;;;5040916;28;20060;-76
2022/11/28 09:03:45;;;;;;;9.38;8.38;;;8.50;99.90;;;;;;5007608;28;20037;-76
2022/11/28 09:06:13;;;;;;;9.32;7.20;;;8.60;99.90;;;;;;5024626;28;20052;-77
2022/11/28 09:08:39;;;;;;;11.77;9.27;;;8.60;99.90;;;;;;5030625;28;20071;-77
2022/11/28 09:11:10;;;;;;;10.18;8.88;;;8.60;99.90;;;;;;5007998;28;20045;-77
2022/11/28 09:13:37;;;;;;;9.98;8.90;;;8.60;99.90;;;;;;5025282;28;20022;-76
2022/11/28 09:16:04;;;;;;;11.80;9.35;;;8.60;99.90;;;;;;5007636;28;20033;-77
2022/11/28 09:18:31;;;;;;;10.57;9.48;;;8.60;99.90;;;;;;5015684;28;20030;-77
2022/11/28 09:20:59;;;;;;;14.10;9.30;;;8.60;99.90;;;;;;5007758;28;20025;-77
2022/11/28 09:23:26;;;;;;;11.73;8.98;;;8.60;99.90;;;;;;5006949;28;20037;-76
2022/11/28 09:25:53;;;;;;;11.73;8.15;;;8.70;99.90;;;;;;5008153;28;20590;-77
2022/11/28 09:28:19;;;;;;;9.10;7.88;;;8.70;99.90;;;;;;5016068;28;20037;-77
2022/11/28 09:30:45;;;;;;;8.40;7.13;;;8.70;99.90;;;;;;5025468;28;20686;-75
2022/11/28 09:33:12;;;;;;;10.32;9.15;;;8.70;99.90;;;;;;5004689;28;20056;-76
2022/11/28 09:35:39;;;;;;;9.25;7.75;;;8.70;99.90;;;;;;5024412;28;20033;-78
2022/11/28 09:38:06;;;;;;;8.15;6.80;;;8.70;99.90;;;;;;4999420;28;20227;-78
2022/11/28 09:40:42;;;;;;;8.77;7.85;;;8.70;99.90;;;;;;5023700;28;20034;-77
2022/11/28 09:43:17;;;;;;;19.75;13.95;;;8.80;99.90;;;;;;5023541;28;20489;-79
2022/11/28 09:45:48;;;;;;;13.85;10.63;;;8.80;99.90;;;;;;5026386;28;20025;-77
2022/11/28 09:48:33;;;;;;;10.75;9.20;;;8.90;99.90;;;;;;4998638;28;20046;-77
2022/11/28 09:51:16;;;;;;;13.05;10.88;;;8.90;99.90;;;;;;5024093;28;20048;-77
2022/11/28 09:53:56;;;;;;;9.93;8.70;;;8.90;99.90;;;;;;5026632;28;20716;-77
2022/11/28 09:56:22;;;;;;;8.90;7.45;;;8.90;99.90;;;;;;5028107;28;20029;-77
2022/11/28 09:58:57;;;;;;;16.27;11.77;;;8.90;99.90;;;;;;5032795;28;20065;-77
2022/11/28 10:01:27;;;;;;;12.00;9.02;;;9.00;99.90;;;;;;5027359;28;20516;-77
2022/11/28 10:04:03;;;;;;;11.55;9.18;;;9.00;99.90;;;;;;5026120;28;20510;-77
2022/11/28 10:06:48;;;;;;;9.07;7.47;;;9.00;99.90;;;;;;5027416;28;20026;-76
2022/11/28 10:09:23;;;;;;;11.82;9.30;;;9.00;99.90;;;;;;5018441;28;20048;-77
2022/11/28 10:12:04;;;;;;;10.50;8.68;;;9.00;99.90;;;;;;5027485;28;20032;-76
2022/11/28 10:14:45;;;;;;;13.25;10.98;;;9.00;99.90;;;;;;5026374;28;20053;-76
2022/11/28 10:17:23;;;;;;;11.30;8.73;;;9.00;99.90;;;;;;5023065;28;20377;-77
2022/11/28 10:19:59;;;;;;;10.13;9.02;;;9.00;99.90;;;;;;5018142;28;20041;-76
2022/11/28 10:22:48;;;;;;;9.48;8.15;;;9.00;99.90;;;;;;5027501;28;20038;-76
2022/11/28 10:25:28;;;;;;;9.73;7.47;;;9.00;99.90;;;;;;5010808;28;20041;-76
2022/11/28 10:27:56;;;;;;;8.52;7.65;;;9.00;99.90;;;;;;4999147;28;20918;-76
2022/11/28 10:30:25;;;;;;;8.27;7.30;;;9.00;99.90;;;;;;5011231;28;20037;-76
2022/11/28 10:33:16;;;;;;;10.93;9.55;;;9.00;99.90;;;;;;5004194;28;20033;-77
2022/11/28 10:35:58;;;;;;;10.18;9.02;;;9.00;99.90;;;;;;4996031;28;20049;-76
2022/11/28 10:38:28;;;;;;;10.45;9.38;;;9.00;99.90;;;;;;5002628;28;20041;-76
2022/11/28 10:41:16;;;;;;;9.98;8.57;;;9.00;99.90;;;;;;5027261;28;20473;-76
2022/11/28 10:44:00;;;;;;;10.38;8.40;;;9.00;99.90;;;;;;5043131;28;20033;-76
2022/11/28 10:46:33;;;;;;;11.88;9.65;;;9.00;99.90;;;;;;5010619;28;20258;-76
2022/11/28 10:49:17;;;;;;;10.63;9.02;;;9.00;99.90;;;;;;5016383;28;20374;-76
2022/11/28 10:51:50;;;;;;;10.60;8.05;;;9.00;99.90;;;;;;5012391;28;20041;-76
2022/11/28 10:54:41;;;;;;;8.13;7.32;;;9.00;99.90;;;;;;5010679;28;20044;-76
2022/11/28 10:57:20;;;;;;;9.77;8.02;;;9.00;99.90;;;;;;5023477;28;20029;-76
2022/11/28 10:59:58;;;;;;;13.18;10.18;;;9.00;99.90;;;;;;5014130;28;20446;-77
2022/11/28 11:03:01;;;;;;;12.07;10.15;;;9.10;99.90;;;;;;5019710;28;20030;-76
2022/11/28 11:05:31;;;;;;;11.57;8.82;;;9.10;99.90;;;;;;4969751;28;20149;-77
2022/11/28 11:08:03;;;;;;;10.07;8.68;;;9.10;99.90;;;;;;4973999;28;20060;-77
2022/11/28 11:10:45;;;;;;;11.95;9.50;;;9.20;99.90;;;;;;5024225;28;20021;-78
2022/11/28 11:13:25;;;;;;;10.35;8.00;;;9.20;99.90;;;;;;5017086;28;20425;-77
2022/11/28 11:16:09;;;;;;;12.68;9.85;;;9.20;99.90;;;;;;5022335;28;20037;-77
2022/11/28 11:18:57;;;;;;;12.23;8.30;;;9.20;99.90;;;;;;5013034;28;20531;-77
2022/11/28 11:21:26;;;;;;;21.65;14.63;;;9.20;99.90;;;;;;5024144;28;20037;-78
2022/11/28 11:24:17;;;;;;;15.95;12.02;;;9.20;99.90;;;;;;5023543;28;20045;-78
2022/11/28 11:26:46;;;;;;;13.48;10.55;;;9.20;99.90;;;;;;5012333;28;20038;-78
2022/11/28 11:29:27;;;;;;;16.38;11.00;;;9.20;99.90;;;;;;5016796;28;20049;-78
2022/11/28 11:31:54;;;;;;;17.13;11.05;;;9.30;99.90;;;;;;5021229;28;20045;-75
2022/11/28 11:34:22;;;;;;;17.23;11.95;;;9.30;99.90;;;;;;5027005;28;20037;-77
2022/11/28 11:36:50;;;;;;;19.50;12.10;;;9.40;99.90;;;;;;5023660;28;20033;-77
2022/11/28 11:39:24;;;;;;;18.70;12.52;;;9.40;99.90;;;;;;4996793;28;20041;-76
2022/11/28 11:42:10;;;;;;;17.63;12.13;;;9.40;99.90;;;;;;5025062;28;20037;-77
2022/11/28 11:44:36;;;;;;;18.25;12.00;;;9.50;99.90;;;;;;5020991;28;20060;-76
2022/11/28 11:47:09;;;;;;;18.98;12.00;;;9.40;99.90;;;;;;5034808;28;20042;-75
2022/11/28 11:49:44;;;;;;;15.95;11.32;;;9.50;99.90;;;;;;5013610;28;20037;-77
2022/11/28 11:52:26;;;;;;;22.92;14.27;;;9.50;99.90;;;;;;5019668;28;20623;-76
2022/11/28 11:54:57;;;;;;;21.75;14.25;;;9.50;99.90;;;;;;5013728;28;20032;-78
2022/11/28 11:57:34;;;;;;;20.80;15.05;;;9.50;99.90;;;;;;5009126;28;20249;-78
2022/11/28 12:00:13;;;;;;;20.90;14.95;;;9.50;99.90;;;;;;4997366;28;20396;-77
2022/11/28 12:03:05;;;;;;;16.27;11.75;;;9.60;99.90;;;;;;5004216;28;20045;-76
2022/11/28 12:05:49;;;;;;;17.73;13.23;;;9.60;99.90;;;;;;5023528;28;20388;-74
2022/11/28 12:08:24;;;;;;;16.35;12.23;;;9.60;99.90;;;;;;5014344;28;20041;-76
2022/11/28 12:11:19;;;;;;;16.08;13.50;;;9.50;99.90;;;;;;5007015;28;20044;-76
2022/11/28 12:13:46;;;;;;;18.55;12.10;;;9.50;99.90;;;;;;5019834;28;20034;-75
2022/11/28 12:16:25;;;;;;;18.38;13.07;;;9.60;99.90;;;;;;5008569;28;20081;-76
2022/11/28 12:19:21;;;;;;;19.88;13.48;;;9.60;99.90;;;;;;5015140;28;20052;-75
2022/11/28 12:22:06;;;;;;;18.23;12.27;;;9.50;99.90;;;;;;4990226;28;20034;-76
2022/11/28 12:24:42;;;;;;;17.48;12.40;;;9.60;99.90;;;;;;5005378;28;20087;-77
2022/11/28 12:27:33;;;;;;;17.45;12.60;;;9.50;99.90;;;;;;5020691;28;20510;-75
2022/11/28 12:30:08;;;;;;;18.20;11.70;;;9.50;99.90;;;;;;5018807;28;20060;-76
2022/11/28 12:32:57;;;;;;;18.42;11.38;;;9.50;99.90;;;;;;5022744;28;20536;-75
2022/11/28 12:35:48;;;;;;;17.35;12.75;;;9.50;99.90;;;;;;5022421;28;20049;-76
2022/11/28 12:38:24;;;;;;;14.07;9.77;;;9.50;99.90;;;;;;5015257;28;20037;-74
2022/11/28 12:41:24;;;;;;;18.08;11.35;;;9.50;99.90;;;;;;5022222;28;20420;-74
2022/11/28 12:44:05;;;;;;;19.08;11.32;;;9.50;99.90;;;;;;5022616;28;20357;-75
2022/11/28 12:46:52;;;;;;;18.27;12.52;;;9.60;99.90;;;;;;4998009;28;20508;-74
2022/11/28 12:49:33;;;;;;;23.10;14.70;;;9.60;99.90;;;;;;5014106;28;20041;-75
2022/11/28 12:52:06;;;;;;;16.55;10.95;;;9.60;99.90;;;;;;5037216;28;20052;-74
2022/11/28 12:54:44;;;;;;;27.90;18.38;;;9.60;99.90;;;;;;5005924;28;20033;-75
2022/11/28 12:57:38;;;;;;;21.02;14.82;;;9.70;99.90;;;;;;5021940;28;20041;-75
2022/11/28 13:00:18;;;;;;;17.75;12.82;;;9.70;99.90;;;;;;5021436;28;20496;-76
2022/11/28 13:03:07;;;;;;;19.13;12.60;;;9.70;99.90;;;;;;5024183;28;20595;-75
2022/11/28 13:05:48;;;;;;;16.27;11.63;;;9.70;99.90;;;;;;5020652;28;20092;-76
2022/11/28 13:08:38;;;;;;;17.45;12.20;;;9.70;99.90;;;;;;5012276;28;20042;-76
2022/11/28 13:11:17;;;;;;;17.10;12.50;;;9.70;99.90;;;;;;5019896;28;20044;-76
2022/11/28 13:14:04;;;;;;;20.73;13.60;;;9.70;99.90;;;;;;5006001;28;20047;-75
2022/11/28 13:16:40;;;;;;;21.83;13.75;;;9.70;99.90;;;;;;5023643;28;20400;-75
2022/11/28 13:19:09;;;;;;;19.02;12.40;;;9.70;99.90;;;;;;5013653;28;20045;-76